Time;durP1;ratioP1;P1;durP2;ratioP2;P2;SDS_P1;SDS_P2;PMS_P1;PMS_P2;Temp;Humidity;BMP_temperature;BMP_pressure;BME280_temperature;BME280_humidity;BME280_pressure;Samples;Min_cycle;Max_cycle;Signal;HPM_P1;HPM_P2
2022/11/03 00:02:29;;;;;;;18.43;4.43;;;7.30;99.90;;;;;;5177233;28;20790;-49
2022/11/03 00:06:03;;;;;;;15.97;5.93;;;7.30;99.90;;;;;;5180478;28;20193;-49
2022/11/03 00:07:50;;;;;;;16.37;6.87;;;7.30;99.90;;;;;;5186996;28;20215;-51
2022/11/03 00:10:21;;;;;;;13.53;6.07;;;7.30;99.90;;;;;;5178237;28;20951;-48
2022/11/03 00:12:52;;;;;;;15.50;5.93;;;7.20;99.90;;;;;;5188882;28;20186;-46
2022/11/03 00:15:23;;;;;;;11.80;5.60;;;7.20;99.90;;;;;;5184724;28;20263;-45
2022/11/03 00:17:54;;;;;;;13.90;5.30;;;7.20;99.90;;;;;;5179489;28;20550;-46
2022/11/03 00:20:25;;;;;;;12.30;5.80;;;7.20;99.90;;;;;;5178670;28;20185;-47
2022/11/03 00:22:55;;;;;;;21.40;6.23;;;7.10;99.90;;;;;;5189547;28;20512;-47
2022/11/03 00:25:26;;;;;;;11.63;5.43;;;7.10;99.90;;;;;;5169334;28;20211;-46
2022/11/03 00:27:57;;;;;;;13.47;5.77;;;7.10;99.90;;;;;;5173047;28;20648;-47
2022/11/03 00:30:27;;;;;;;10.23;5.27;;;7.00;99.90;;;;;;5181667;28;20177;-47
2022/11/03 00:32:58;;;;;;;10.73;5.50;;;7.00;99.90;;;;;;5171541;28;20213;-46
2022/11/03 00:35:29;;;;;;;14.33;6.30;;;7.00;99.90;;;;;;5166450;28;20637;-46
2022/11/03 00:38:00;;;;;;;8.23;4.90;;;7.00;99.90;;;;;;5181689;28;20597;-47
2022/11/03 00:40:30;;;;;;;6.27;4.17;;;7.00;99.90;;;;;;5168654;28;20192;-47
2022/11/03 00:43:01;;;;;;;14.47;4.37;;;7.00;99.90;;;;;;5184097;28;20542;-46
2022/11/03 00:45:32;;;;;;;14.13;4.93;;;6.90;99.90;;;;;;5187382;28;20211;-45
2022/11/03 00:50:52;;;;;;;13.33;4.83;;;6.90;99.90;;;;;;5185745;28;20242;-47
2022/11/03 00:53:22;;;;;;;17.03;6.53;;;6.90;99.90;;;;;;5183223;28;20510;-47
2022/11/03 00:55:53;;;;;;;13.50;5.27;;;6.90;99.90;;;;;;5190248;28;20222;-45
2022/11/03 00:58:24;;;;;;;7.30;4.00;;;6.90;99.90;;;;;;5186970;28;20270;-46
2022/11/03 01:01:07;;;;;;;15.67;4.67;;;6.90;99.90;;;;;;5183439;28;20555;-47
2022/11/03 01:03:39;;;;;;;5.90;4.40;;;6.90;99.90;;;;;;5177732;28;20242;-47
2022/11/03 01:09:00;;;;;;;14.53;5.50;;;6.90;99.90;;;;;;5175591;28;20459;-46
2022/11/03 01:11:42;;;;;;;12.00;5.30;;;6.90;99.90;;;;;;5176437;28;20435;-48
2022/11/03 01:14:14;;;;;;;9.80;5.00;;;6.90;99.90;;;;;;5180231;28;20196;-48
2022/11/03 01:16:45;;;;;;;10.57;5.87;;;6.90;99.90;;;;;;5173525;28;20464;-46
2022/11/03 01:19:15;;;;;;;15.23;5.43;;;6.80;99.90;;;;;;5169784;28;20462;-47
2022/11/03 01:21:55;;;;;;;7.27;4.60;;;6.90;99.90;;;;;;5176335;28;20189;-47
2022/11/03 01:24:26;;;;;;;21.70;5.10;;;6.80;99.90;;;;;;5185801;28;20745;-46
2022/11/03 01:26:57;;;;;;;8.83;3.90;;;6.90;99.90;;;;;;5176361;28;20462;-47
2022/11/03 01:29:27;;;;;;;8.13;4.53;;;6.80;99.90;;;;;;5169567;28;20180;-46
2022/11/03 01:31:58;;;;;;;9.90;4.77;;;6.80;99.90;;;;;;5171218;28;20181;-47
2022/11/03 01:34:29;;;;;;;8.50;4.53;;;6.80;99.90;;;;;;5180241;28;20188;-46
2022/11/03 01:37:00;;;;;;;14.63;4.70;;;6.80;99.90;;;;;;5186722;28;20443;-46
2022/11/03 01:39:31;;;;;;;16.63;5.03;;;6.90;99.90;;;;;;5170476;28;20192;-49
2022/11/03 01:42:02;;;;;;;6.80;4.70;;;6.80;99.90;;;;;;5181234;28;20435;-46
2022/11/03 01:44:35;;;;;;;13.43;3.53;;;6.70;99.90;;;;;;5166961;28;20274;-47
2022/11/03 01:47:20;;;;;;;5.60;4.43;;;6.70;99.90;;;;;;5183922;28;20452;-46
2022/11/03 01:50:15;;;;;;;10.23;4.93;;;6.70;99.90;;;;;;5165326;28;20475;-46
2022/11/03 01:52:47;;;;;;;8.17;4.07;;;6.70;99.90;;;;;;5169723;28;20448;-46
2022/11/03 01:55:22;;;;;;;11.17;3.80;;;6.70;99.90;;;;;;5166720;28;20424;-46
2022/11/03 01:58:02;;;;;;;5.20;3.70;;;6.80;99.90;;;;;;5187258;28;20454;-47
2022/11/03 02:00:33;;;;;;;8.57;3.93;;;6.70;99.90;;;;;;5184520;28;20442;-48
2022/11/03 02:03:05;;;;;;;7.07;4.40;;;6.70;99.90;;;;;;5170144;28;20435;-48
2022/11/03 02:05:36;;;;;;;17.33;4.00;;;6.60;99.90;;;;;;5175559;28;20868;-47
2022/11/03 02:08:12;;;;;;;8.60;4.20;;;6.60;99.90;;;;;;5185271;28;20468;-46
2022/11/03 02:10:46;;;;;;;5.27;3.33;;;6.60;99.90;;;;;;5166712;28;20657;-46
2022/11/03 02:13:20;;;;;;;10.47;4.30;;;6.60;99.90;;;;;;5189370;28;20419;-45
2022/11/03 02:15:54;;;;;;;13.30;4.00;;;6.60;99.90;;;;;;5181771;28;20800;-46
2022/11/03 02:18:30;;;;;;;6.37;3.33;;;6.60;99.90;;;;;;5184442;28;20445;-46
2022/11/03 02:21:41;;;;;;;5.60;3.80;;;6.50;99.90;;;;;;5188321;28;20442;-46
2022/11/03 02:24:17;;;;;;;6.17;3.10;;;6.60;99.90;;;;;;5164000;28;20431;-46
2022/11/03 02:26:52;;;;;;;10.17;3.47;;;6.50;99.90;;;;;;5171109;28;20549;-46
2022/11/03 02:29:23;;;;;;;9.37;3.50;;;6.60;99.90;;;;;;5166040;28;20443;-45
2022/11/03 02:32:10;;;;;;;8.00;3.13;;;6.60;99.90;;;;;;5185535;28;20449;-47
2022/11/03 02:35:03;;;;;;;8.43;2.73;;;6.50;99.90;;;;;;5186679;28;20183;-46
2022/11/03 02:37:42;;;;;;;6.60;3.30;;;6.50;99.90;;;;;;5196928;28;20529;-47
2022/11/03 02:40:17;;;;;;;5.73;3.47;;;6.50;99.90;;;;;;5193910;28;20421;-46
2022/11/03 02:42:51;;;;;;;5.37;3.20;;;6.50;99.90;;;;;;5194519;28;20430;-47
2022/11/03 02:45:24;;;;;;;5.97;3.30;;;6.50;99.90;;;;;;5164236;28;20439;-45
2022/11/03 02:47:58;;;;;;;17.07;4.27;;;6.40;99.90;;;;;;5169019;28;20474;-45
2022/11/03 02:50:31;;;;;;;6.90;2.90;;;6.50;99.90;;;;;;5182884;28;20428;-45
2022/11/03 02:53:02;;;;;;;9.47;3.07;;;6.70;99.90;;;;;;5152657;28;20778;-46
2022/11/03 02:55:37;;;;;;;12.70;3.53;;;6.70;99.90;;;;;;5169443;28;20423;-47
2022/11/03 02:58:47;;;;;;;4.97;3.10;;;6.70;99.90;;;;;;5172552;28;20184;-46
2022/11/03 03:01:25;;;;;;;8.13;3.23;;;6.70;99.90;;;;;;5197245;28;20769;-45
2022/11/03 03:04:03;;;;;;;12.93;3.20;;;7.10;99.90;;;;;;5190729;28;20477;-46
2022/11/03 03:06:42;;;;;;;8.83;3.30;;;6.90;99.90;;;;;;5181567;28;20911;-46
2022/11/03 03:09:20;;;;;;;4.90;2.90;;;7.10;99.90;;;;;;5165006;28;20481;-46
2022/11/03 03:11:54;;;;;;;3.83;3.00;;;7.00;99.90;;;;;;5187982;28;20439;-46
2022/11/03 03:14:29;;;;;;;6.43;2.90;;;7.10;99.90;;;;;;5169014;28;20546;-45
2022/11/03 03:17:13;;;;;;;4.77;3.30;;;6.90;99.90;;;;;;5171574;28;20467;-46
2022/11/03 03:19:47;;;;;;;7.90;2.87;;;6.90;99.90;;;;;;5203470;28;20456;-46
2022/11/03 03:22:42;;;;;;;9.03;2.97;;;6.90;99.90;;;;;;5184130;28;20521;-47
2022/11/03 03:25:22;;;;;;;12.47;2.90;;;6.80;99.90;;;;;;5190968;28;20934;-45
2022/11/03 03:28:00;;;;;;;6.23;2.93;;;6.90;99.90;;;;;;5182301;28;20557;-46
2022/11/03 03:30:34;;;;;;;4.10;2.83;;;6.80;99.90;;;;;;5162564;28;20462;-47
2022/11/03 03:33:07;;;;;;;7.30;2.57;;;6.90;99.90;;;;;;5172934;28;20927;-47
2022/11/03 03:35:43;;;;;;;13.83;2.80;;;6.90;99.90;;;;;;5168766;28;20931;-46
2022/11/03 03:38:20;;;;;;;7.97;2.63;;;7.10;99.90;;;;;;5180555;28;20469;-46
2022/11/03 03:40:54;;;;;;;4.20;2.50;;;7.10;99.90;;;;;;5171525;28;20419;-47
2022/11/03 03:43:27;;;;;;;5.23;2.80;;;7.00;99.90;;;;;;5185940;28;20493;-48
2022/11/03 03:46:05;;;;;;;2.87;2.43;;;7.00;99.90;;;;;;5182216;28;20474;-48
2022/11/03 03:48:36;;;;;;;3.90;2.50;;;7.00;99.90;;;;;;5181716;28;20470;-51
2022/11/03 03:51:07;;;;;;;7.77;2.90;;;6.90;99.90;;;;;;5181669;28;20439;-51
2022/11/03 03:53:37;;;;;;;3.60;2.40;;;7.00;99.90;;;;;;5181161;28;20594;-50
2022/11/03 03:56:08;;;;;;;6.07;3.27;;;6.90;99.90;;;;;;5167748;28;20552;-49
2022/11/03 03:58:39;;;;;;;6.63;2.60;;;6.80;99.90;;;;;;5177777;28;20270;-47
2022/11/03 04:01:11;;;;;;;11.27;3.60;;;6.70;99.90;;;;;;5188141;28;20195;-49
2022/11/03 04:03:42;;;;;;;7.10;3.00;;;6.70;99.90;;;;;;5187142;28;20188;-49
2022/11/03 04:06:12;;;;;;;8.23;3.73;;;6.60;99.90;;;;;;5202934;23;20488;-49
2022/11/03 04:08:43;;;;;;;7.13;2.97;;;6.70;99.90;;;;;;5215679;28;20209;-51
2022/11/03 04:22:32;;;;;;;9.47;2.70;;;6.40;99.90;;;;;;5256007;28;20430;-51
2022/11/03 04:25:03;;;;;;;14.37;3.50;;;6.40;99.90;;;;;;5256466;28;21008;-52
2022/11/03 04:27:36;;;;;;;8.00;3.50;;;6.30;99.90;;;;;;5260748;28;20470;-51
2022/11/03 04:30:18;;;;;;;4.50;3.07;;;6.30;99.90;;;;;;5250593;28;20184;-51
2022/11/03 04:32:50;;;;;;;8.07;3.80;;;6.30;99.90;;;;;;5257281;28;20436;-52
2022/11/03 04:35:26;;;;;;;5.20;3.40;;;6.20;99.90;;;;;;5257967;28;20798;-53
2022/11/03 04:38:02;;;;;;;14.30;3.80;;;6.30;99.90;;;;;;5265472;28;20443;-52
2022/11/03 04:40:32;;;;;;;8.50;3.60;;;6.30;99.90;;;;;;5254602;28;20431;-53
2022/11/03 04:43:09;;;;;;;16.07;4.03;;;6.20;99.90;;;;;;5259920;28;20431;-51
2022/11/03 04:45:43;;;;;;;13.10;4.10;;;6.20;99.90;;;;;;5251358;28;20212;-52
2022/11/03 04:48:20;;;;;;;6.13;3.30;;;6.30;99.90;;;;;;5257061;28;20477;-49
2022/11/03 04:50:54;;;;;;;3.83;3.30;;;6.30;99.90;;;;;;5256699;28;20446;-52
2022/11/03 04:53:29;;;;;;;9.63;3.63;;;6.20;99.90;;;;;;5265579;28;20788;-54
2022/11/03 04:55:59;;;;;;;10.87;3.87;;;6.20;99.90;;;;;;5257924;28;20446;-51
2022/11/03 04:58:35;;;;;;;6.83;3.00;;;6.20;99.90;;;;;;5262346;28;20459;-53
2022/11/03 05:01:11;;;;;;;10.43;3.60;;;6.20;99.90;;;;;;5251307;28;20258;-52
2022/11/03 05:03:45;;;;;;;5.93;4.10;;;6.10;99.90;;;;;;5262875;28;20461;-50
2022/11/03 05:06:25;;;;;;;14.23;4.43;;;6.10;99.90;;;;;;5263675;28;20988;-51
2022/11/03 05:09:04;;;;;;;10.10;4.40;;;6.00;99.90;;;;;;5253887;28;20463;-52
2022/11/03 05:11:40;;;;;;;6.87;3.13;;;5.90;99.90;;;;;;5258047;28;20970;-52
2022/11/03 05:14:24;;;;;;;8.33;4.23;;;5.90;99.90;;;;;;5255582;28;20777;-52
2022/11/03 05:16:55;;;;;;;6.83;3.60;;;5.80;99.90;;;;;;5266151;28;20496;-50
2022/11/03 05:19:25;;;;;;;18.53;5.23;;;5.80;99.90;;;;;;5264167;28;20434;-53
2022/11/03 05:21:57;;;;;;;4.40;3.37;;;5.70;99.90;;;;;;5273920;28;20189;-50
2022/11/03 05:24:29;;;;;;;9.10;4.17;;;5.80;99.90;;;;;;5250971;28;20182;-52
2022/11/03 05:27:00;;;;;;;14.17;5.00;;;5.70;99.90;;;;;;5259581;28;20788;-52
2022/11/03 05:29:35;;;;;;;10.10;4.23;;;5.70;99.90;;;;;;5260457;28;20438;-52
2022/11/03 05:32:17;;;;;;;6.03;3.97;;;5.60;99.90;;;;;;5263609;28;20179;-52
2022/11/03 05:34:50;;;;;;;11.43;4.30;;;5.60;99.90;;;;;;5255150;28;20430;-51
2022/11/03 05:37:28;;;;;;;8.10;4.00;;;5.60;99.90;;;;;;5247129;28;20459;-52
2022/11/03 05:40:23;;;;;;;7.60;4.27;;;5.60;99.90;;;;;;5262369;28;20442;-52
2022/11/03 05:42:59;;;;;;;11.90;4.10;;;5.60;99.90;;;;;;5259557;28;20457;-53
2022/11/03 05:45:33;;;;;;;12.37;4.20;;;5.60;99.90;;;;;;5255318;28;20511;-51
2022/11/03 05:48:17;;;;;;;18.97;5.00;;;5.60;99.90;;;;;;5258306;28;20465;-52
2022/11/03 05:50:47;;;;;;;7.90;4.07;;;5.60;99.90;;;;;;5261788;28;20435;-52
2022/11/03 05:53:31;;;;;;;5.10;3.27;;;5.60;99.90;;;;;;5266251;28;20787;-52
2022/11/03 05:56:04;;;;;;;9.77;4.27;;;5.60;99.90;;;;;;5260223;28;20179;-51
2022/11/03 05:58:41;;;;;;;3.43;3.13;;;5.60;99.90;;;;;;5268316;28;20430;-52
2022/11/03 06:01:33;;;;;;;11.10;4.17;;;5.60;99.90;;;;;;5258731;28;21020;-51
2022/11/03 06:04:23;;;;;;;12.93;4.50;;;5.60;99.90;;;;;;5256082;28;20438;-51
2022/11/03 06:07:24;;;;;;;3.77;3.47;;;5.70;99.90;;;;;;5269266;28;20470;-52
2022/11/03 06:09:56;;;;;;;5.30;3.60;;;5.70;99.90;;;;;;5261449;28;20909;-51
2022/11/03 06:12:29;;;;;;;6.17;3.63;;;5.80;99.90;;;;;;5256128;28;20441;-50
2022/11/03 06:14:59;;;;;;;9.47;3.33;;;5.80;99.90;;;;;;5257170;28;20491;-52
2022/11/03 06:17:30;;;;;;;10.93;4.37;;;5.80;99.90;;;;;;5253963;28;20454;-50
2022/11/03 06:20:01;;;;;;;4.90;2.90;;;5.70;99.90;;;;;;5259289;28;20185;-49
2022/11/03 06:22:36;;;;;;;11.20;3.93;;;5.80;99.90;;;;;;5255684;28;20671;-51
2022/11/03 06:25:27;;;;;;;4.73;3.50;;;5.80;99.90;;;;;;5254772;28;20196;-52
2022/11/03 06:28:23;;;;;;;13.97;4.80;;;5.80;99.90;;;;;;5262197;28;21004;-51
2022/11/03 06:30:55;;;;;;;10.97;4.60;;;5.70;99.90;;;;;;5255682;28;20427;-52
2022/11/03 06:33:33;;;;;;;19.60;5.70;;;5.70;99.90;;;;;;5262686;28;20509;-52
2022/11/03 06:36:17;;;;;;;7.87;4.17;;;5.80;99.90;;;;;;5258183;28;20457;-51
2022/11/03 06:38:54;;;;;;;7.10;4.33;;;5.80;99.90;;;;;;5270339;28;20481;-52
2022/11/03 06:41:27;;;;;;;15.50;4.00;;;5.80;99.90;;;;;;5263836;28;20950;-51
2022/11/03 06:44:02;;;;;;;6.90;3.80;;;5.80;99.90;;;;;;5261747;28;20965;-52
2022/11/03 06:46:32;;;;;;;9.87;5.27;;;5.80;99.90;;;;;;5265476;28;20930;-50
2022/11/03 06:49:33;;;;;;;10.07;3.27;;;5.80;99.90;;;;;;5265154;28;20490;-52
2022/11/03 06:52:24;;;;;;;12.53;4.10;;;5.80;99.90;;;;;;5281911;28;20271;-50
2022/11/03 06:55:04;;;;;;;11.33;4.90;;;5.90;99.90;;;;;;5263142;28;20489;-52
2022/11/03 06:57:38;;;;;;;14.47;5.30;;;6.00;99.90;;;;;;5265910;28;20469;-51
2022/11/03 07:00:22;;;;;;;16.00;3.67;;;6.10;99.90;;;;;;5266863;28;20442;-51
2022/11/03 07:03:08;;;;;;;11.80;5.30;;;6.20;99.90;;;;;;5264223;28;20433;-51
2022/11/03 07:05:39;;;;;;;11.30;4.23;;;6.20;99.90;;;;;;5264689;28;20501;-49
2022/11/03 07:08:27;;;;;;;11.00;4.20;;;6.20;99.90;;;;;;5261382;28;20461;-52
2022/11/03 07:11:03;;;;;;;14.77;4.47;;;6.20;99.90;;;;;;5260510;28;20559;-50
2022/11/03 07:13:34;;;;;;;15.67;5.03;;;6.20;99.90;;;;;;5261122;28;21013;-52
2022/11/03 07:16:30;;;;;;;15.53;4.07;;;6.20;99.90;;;;;;5266741;28;20568;-49
2022/11/03 07:19:03;;;;;;;9.10;4.20;;;6.30;99.90;;;;;;5265134;28;20439;-51
2022/11/03 07:21:42;;;;;;;10.93;3.87;;;6.50;99.90;;;;;;5267739;28;20475;-51
2022/11/03 07:24:32;;;;;;;14.23;3.73;;;6.60;99.90;;;;;;5265365;28;20443;-51
2022/11/03 07:27:24;;;;;;;6.40;3.87;;;6.70;99.90;;;;;;5260686;28;20520;-52
2022/11/03 07:30:25;;;;;;;8.53;4.20;;;6.90;99.90;;;;;;5265326;28;20839;-52
2022/11/03 07:33:19;;;;;;;16.50;4.43;;;7.00;99.90;;;;;;5264855;28;20538;-52
2022/11/03 07:35:50;;;;;;;10.13;3.90;;;7.10;99.90;;;;;;5267506;28;20908;-52
2022/11/03 07:38:22;;;;;;;11.10;3.80;;;7.20;99.90;;;;;;5266133;28;20527;-51
2022/11/03 07:40:56;;;;;;;13.33;3.80;;;7.40;99.90;;;;;;5262309;28;20701;-52
2022/11/03 07:43:33;;;;;;;8.43;3.23;;;7.60;99.90;;;;;;5281020;28;20428;-52
2022/11/03 07:46:05;;;;;;;9.70;3.80;;;7.80;99.90;;;;;;5264991;28;20443;-53
2022/11/03 07:48:42;;;;;;;5.57;3.63;;;7.90;99.90;;;;;;5261067;28;20487;-53
2022/11/03 07:51:27;;;;;;;4.20;3.17;;;8.00;99.90;;;;;;5262527;28;20435;-52
2022/11/03 07:54:09;;;;;;;5.30;3.70;;;8.30;99.90;;;;;;5261395;28;20889;-51
2022/11/03 07:56:47;;;;;;;9.40;3.70;;;8.30;99.90;;;;;;5266908;28;20537;-52
2022/11/03 07:59:26;;;;;;;11.57;3.33;;;8.50;99.90;;;;;;5259285;28;20435;-50
2022/11/03 08:01:57;;;;;;;22.47;4.17;;;8.50;99.90;;;;;;5263773;28;20771;-53
2022/11/03 08:04:31;;;;;;;5.40;3.30;;;8.60;99.90;;;;;;5262594;28;20973;-51
2022/11/03 08:07:01;;;;;;;12.33;4.37;;;8.60;99.90;;;;;;5263276;28;20637;-53
2022/11/03 08:09:32;;;;;;;7.47;3.60;;;8.70;99.90;;;;;;5248464;28;20463;-52
2022/11/03 08:12:02;;;;;;;18.60;3.63;;;8.80;99.90;;;;;;5262670;28;20641;-52
2022/11/03 08:14:34;;;;;;;22.07;6.03;;;8.90;99.90;;;;;;5268416;28;20173;-50
2022/11/03 08:17:04;;;;;;;6.47;3.60;;;8.80;99.90;;;;;;5269214;28;20201;-53
2022/11/03 08:19:35;;;;;;;7.87;4.10;;;9.00;99.90;;;;;;5264676;28;20438;-52
2022/11/03 08:22:05;;;;;;;10.53;3.77;;;9.00;99.90;;;;;;5262461;28;20177;-53
2022/11/03 08:24:36;;;;;;;7.60;3.37;;;9.20;99.90;;;;;;5264470;28;20185;-51
2022/11/03 08:27:06;;;;;;;9.13;3.50;;;9.20;99.90;;;;;;5259182;28;20198;-51
2022/11/03 08:29:37;;;;;;;10.23;4.03;;;9.20;99.90;;;;;;5266139;28;20185;-49
2022/11/03 08:32:07;;;;;;;8.30;4.10;;;9.20;99.90;;;;;;5262597;28;20174;-53
2022/11/03 08:34:38;;;;;;;21.57;4.10;;;9.20;99.90;;;;;;5262807;28;20230;-52
2022/11/03 08:37:09;;;;;;;11.13;4.50;;;9.20;99.90;;;;;;5266884;28;20296;-51
2022/11/03 08:39:39;;;;;;;6.63;3.50;;;9.30;99.90;;;;;;5263034;28;20688;-52
2022/11/03 08:42:10;;;;;;;11.53;3.80;;;9.40;99.90;;;;;;5266466;28;20210;-53
2022/11/03 08:44:40;;;;;;;28.73;4.50;;;9.40;99.90;;;;;;5256894;28;20283;-53
2022/11/03 08:47:11;;;;;;;20.20;4.33;;;9.30;99.90;;;;;;5267298;28;20186;-52
2022/11/03 08:49:41;;;;;;;19.60;4.50;;;9.30;99.90;;;;;;5265351;28;20174;-54
2022/11/03 08:52:12;;;;;;;12.53;4.77;;;9.40;99.90;;;;;;5264320;28;20243;-54
2022/11/03 08:54:42;;;;;;;7.90;3.70;;;9.40;99.90;;;;;;5265463;28;20170;-53
2022/11/03 08:57:13;;;;;;;12.33;4.07;;;9.50;99.90;;;;;;5268251;28;20778;-53
2022/11/03 08:59:44;;;;;;;11.67;5.43;;;9.40;99.90;;;;;;5265970;28;20182;-50
2022/11/03 09:02:15;;;;;;;9.03;3.80;;;9.60;99.90;;;;;;5262129;28;20854;-52
2022/11/03 09:04:45;;;;;;;5.47;3.40;;;9.60;99.90;;;;;;5262268;28;20177;-53
2022/11/03 09:07:16;;;;;;;9.13;3.63;;;9.80;99.90;;;;;;5261325;28;20201;-52
2022/11/03 09:09:46;;;;;;;9.43;2.90;;;9.80;99.90;;;;;;5263857;28;20238;-52
2022/11/03 09:12:17;;;;;;;5.93;3.07;;;9.90;99.90;;;;;;5263059;28;20640;-52
2022/11/03 09:14:47;;;;;;;7.87;2.60;;;10.00;99.90;;;;;;5262448;28;20189;-52
2022/11/03 09:17:18;;;;;;;9.13;2.87;;;10.00;99.90;;;;;;5264680;28;20194;-52
2022/11/03 09:19:48;;;;;;;4.87;3.10;;;10.10;99.90;;;;;;5266893;28;20246;-53
2022/11/03 09:22:20;;;;;;;8.80;2.93;;;10.30;99.90;;;;;;5258904;28;20194;-51
2022/11/03 09:24:51;;;;;;;18.33;3.47;;;10.30;99.90;;;;;;5258836;28;20184;-52
2022/11/03 09:27:21;;;;;;;8.40;3.43;;;10.40;99.90;;;;;;5263953;28;20546;-49
2022/11/03 09:29:52;;;;;;;9.43;2.50;;;10.40;99.90;;;;;;5262160;28;20208;-49
2022/11/03 09:32:23;;;;;;;6.43;3.33;;;10.50;99.90;;;;;;5261375;28;20203;-49
2022/11/03 09:34:53;;;;;;;8.60;3.30;;;10.60;99.90;;;;;;5256627;28;20180;-48
2022/11/03 09:37:24;;;;;;;8.30;3.00;;;10.80;99.90;;;;;;5257781;28;20209;-48
2022/11/03 09:39:55;;;;;;;5.73;3.03;;;10.80;99.90;;;;;;5261564;28;20253;-52
2022/11/03 09:42:25;;;;;;;4.20;3.07;;;10.90;99.90;;;;;;5262358;28;20209;-48
2022/11/03 09:44:56;;;;;;;3.27;2.67;;;10.90;99.90;;;;;;5257503;28;20186;-50
2022/11/03 09:47:32;;;;;;;8.23;3.00;;;10.90;99.90;;;;;;5263340;28;20200;-49
2022/11/03 09:50:04;;;;;;;7.10;2.97;;;11.00;99.90;;;;;;5263525;28;20250;-48
2022/11/03 09:52:36;;;;;;;17.67;3.53;;;11.10;99.90;;;;;;5260905;28;20435;-49
2022/11/03 09:55:20;;;;;;;13.77;3.50;;;11.30;99.90;;;;;;5258794;28;20432;-49
2022/11/03 09:57:53;;;;;;;5.47;3.07;;;11.30;99.90;;;;;;5260332;28;20455;-48
2022/11/03 10:00:25;;;;;;;9.50;2.90;;;11.30;99.90;;;;;;5259180;28;21864;-49
2022/11/03 10:02:55;;;;;;;4.83;3.20;;;11.30;99.90;;;;;;5259972;28;20545;-47
2022/11/03 10:05:27;;;;;;;6.57;2.43;;;11.40;99.90;;;;;;5263186;28;20485;-49
2022/11/03 10:08:04;;;;;;;5.67;2.73;;;11.40;99.90;;;;;;5263878;28;20296;-52
2022/11/03 10:10:35;;;;;;;9.07;3.23;;;11.60;99.90;;;;;;5258684;28;20785;-51
2022/11/03 10:13:12;;;;;;;7.93;2.90;;;11.50;99.90;;;;;;5258526;28;20432;-51
2022/11/03 10:15:42;;;;;;;8.10;3.33;;;11.70;99.90;;;;;;5260048;28;20192;-52
2022/11/03 10:18:13;;;;;;;4.00;2.00;;;11.60;99.90;;;;;;5264779;28;20494;-54
2022/11/03 10:20:44;;;;;;;3.80;2.70;;;11.60;99.90;;;;;;5261017;28;20181;-52
2022/11/03 10:23:15;;;;;;;11.47;2.57;;;11.70;99.90;;;;;;5261893;28;20493;-52
2022/11/03 10:25:46;;;;;;;6.30;2.50;;;11.70;99.90;;;;;;5262937;28;20253;-51
2022/11/03 10:28:21;;;;;;;5.70;2.83;;;11.80;99.90;;;;;;5265762;28;20216;-52
2022/11/03 10:30:57;;;;;;;5.30;2.77;;;11.80;99.90;;;;;;5256122;28;20213;-51
2022/11/03 10:33:40;;;;;;;3.70;2.20;;;11.90;99.90;;;;;;5259382;28;20857;-53
2022/11/03 10:36:16;;;;;;;8.63;2.90;;;12.00;99.90;;;;;;5260960;28;20558;-52
2022/11/03 10:38:47;;;;;;;5.00;2.27;;;12.00;99.90;;;;;;5257384;28;20481;-55
2022/11/03 10:41:20;;;;;;;4.37;2.20;;;12.10;99.90;;;;;;5264797;28;20431;-50
2022/11/03 10:44:18;;;;;;;8.73;2.60;;;12.20;99.90;;;;;;5265261;28;20178;-49
2022/11/03 10:47:02;;;;;;;6.37;2.07;;;12.30;99.90;;;;;;5258189;28;20452;-51
2022/11/03 10:49:37;;;;;;;2.70;2.10;;;12.30;99.90;;;;;;5239807;28;20464;-50
2022/11/03 10:52:19;;;;;;;6.30;2.93;;;12.30;99.90;;;;;;5259591;28;20458;-50
2022/11/03 10:54:52;;;;;;;3.20;2.27;;;12.40;99.90;;;;;;5258061;28;20443;-49
2022/11/03 10:57:24;;;;;;;4.67;1.77;;;12.30;99.90;;;;;;5261352;28;20451;-51
2022/11/03 10:59:55;;;;;;;5.47;2.33;;;12.40;99.90;;;;;;5260022;28;20437;-51
2022/11/03 11:02:30;;;;;;;5.30;3.27;;;12.50;99.90;;;;;;5260906;28;20513;-50
2022/11/03 11:05:11;;;;;;;6.30;1.53;;;12.50;99.90;;;;;;5260492;28;20173;-52
2022/11/03 11:07:43;;;;;;;4.53;2.60;;;12.60;99.90;;;;;;5256063;28;20467;-49
2022/11/03 11:10:19;;;;;;;3.93;2.50;;;12.70;99.90;;;;;;5254983;28;20432;-52
2022/11/03 11:13:29;;;;;;;11.37;4.20;;;12.80;99.90;;;;;;5254552;28;20419;-50
2022/11/03 11:16:01;;;;;;;7.90;2.43;;;12.70;99.90;;;;;;5263125;28;20534;-50
2022/11/03 11:18:32;;;;;;;3.27;1.90;;;12.80;99.90;;;;;;5255093;28;20432;-50
2022/11/03 11:21:11;;;;;;;14.70;2.60;;;12.80;99.90;;;;;;5262650;28;20440;-49
2022/11/03 11:23:43;;;;;;;10.43;2.40;;;12.90;99.90;;;;;;5271046;28;20181;-49
2022/11/03 11:26:30;;;;;;;5.40;2.60;;;13.00;99.90;;;;;;5263053;28;20440;-49
2022/11/03 11:29:07;;;;;;;4.70;2.63;;;13.00;99.90;;;;;;5266226;28;20531;-51
2022/11/03 11:32:16;;;;;;;2.63;1.87;;;13.10;99.90;;;;;;5267154;28;20772;-49
2022/11/03 11:34:46;;;;;;;11.53;3.17;;;13.00;99.90;;;;;;5252417;28;20436;-49
2022/11/03 11:37:20;;;;;;;6.47;2.93;;;13.00;99.90;;;;;;5267238;28;20463;-51
2022/11/03 11:39:51;;;;;;;16.83;2.70;;;13.00;99.90;;;;;;5264350;28;20171;-49
2022/11/03 11:42:21;;;;;;;10.93;3.70;;;12.80;99.90;;;;;;5266037;28;20435;-49
2022/11/03 11:44:55;;;;;;;5.93;3.00;;;12.80;99.90;;;;;;5275281;28;20181;-51
2022/11/03 11:47:45;;;;;;;6.70;2.87;;;12.70;99.90;;;;;;5256978;28;20680;-49
2022/11/03 11:50:24;;;;;;;6.13;2.73;;;12.70;99.90;;;;;;5266887;28;20431;-50
2022/11/03 11:53:03;;;;;;;3.93;2.50;;;12.60;99.90;;;;;;5267553;28;20438;-50
2022/11/03 11:55:40;;;;;;;7.20;2.80;;;12.60;99.90;;;;;;5254591;28;20427;-49
2022/11/03 11:58:36;;;;;;;9.20;2.50;;;12.50;99.90;;;;;;5263839;28;20443;-50
2022/11/03 12:01:29;;;;;;;4.30;2.77;;;12.60;99.90;;;;;;5256424;28;20920;-51
2022/11/03 12:04:25;;;;;;;6.67;2.97;;;12.60;99.90;;;;;;5260150;28;20443;-52
2022/11/03 12:06:56;;;;;;;5.60;2.37;;;12.50;99.90;;;;;;5265132;28;20502;-49
2022/11/03 12:09:27;;;;;;;12.37;2.00;;;12.60;99.90;;;;;;5261812;28;20487;-52
2022/11/03 12:12:00;;;;;;;11.33;2.47;;;12.50;99.90;;;;;;5262114;28;20436;-54
2022/11/03 12:14:30;;;;;;;4.90;3.07;;;12.40;99.90;;;;;;5261201;28;20809;-50
2022/11/03 12:17:16;;;;;;;7.77;3.23;;;12.40;99.90;;;;;;5254058;28;20548;-51
2022/11/03 12:19:51;;;;;;;8.70;3.23;;;12.40;99.90;;;;;;5262424;28;20186;-54
2022/11/03 12:22:22;;;;;;;3.17;2.80;;;12.40;99.90;;;;;;5258995;28;20427;-50
2022/11/03 12:25:05;;;;;;;11.47;3.60;;;12.40;99.90;;;;;;5262027;28;20440;-53
2022/11/03 12:27:36;;;;;;;8.43;3.77;;;12.50;99.90;;;;;;5256959;28;20213;-53
2022/11/03 12:30:16;;;;;;;2.67;2.47;;;12.70;99.90;;;;;;5268422;28;20450;-51
2022/11/03 12:32:53;;;;;;;4.90;3.17;;;12.70;99.90;;;;;;5265972;28;20181;-53
2022/11/03 12:35:23;;;;;;;11.03;4.27;;;12.70;99.90;;;;;;5280240;28;20435;-54
2022/11/03 12:37:54;;;;;;;10.17;3.50;;;12.70;99.90;;;;;;5261559;28;20967;-52
2022/11/03 12:40:26;;;;;;;8.63;2.40;;;12.70;99.90;;;;;;5263058;28;20208;-52
2022/11/03 12:42:56;;;;;;;1.90;1.80;;;12.70;99.90;;;;;;5260351;28;20479;-52
2022/11/03 12:45:27;;;;;;;7.00;3.00;;;12.70;99.90;;;;;;5260000;28;20447;-51
2022/11/03 12:47:57;;;;;;;3.70;2.30;;;12.60;99.90;;;;;;5261090;28;20209;-50
2022/11/03 12:50:28;;;;;;;10.60;2.47;;;12.60;99.90;;;;;;5261313;28;20305;-50
2022/11/03 12:52:58;;;;;;;6.47;2.50;;;12.60;99.90;;;;;;5263028;28;20546;-52
2022/11/03 12:55:29;;;;;;;4.13;2.30;;;12.80;99.90;;;;;;5260076;28;20641;-52
2022/11/03 12:58:01;;;;;;;6.57;2.33;;;12.60;99.90;;;;;;5261729;28;20236;-50
2022/11/03 13:00:32;;;;;;;7.70;2.57;;;12.70;99.90;;;;;;5260551;28;20199;-53
2022/11/03 13:03:03;;;;;;;7.73;2.70;;;12.80;99.90;;;;;;5264515;28;20526;-52
2022/11/03 13:05:33;;;;;;;17.40;2.50;;;12.80;99.90;;;;;;5264260;28;20185;-50
2022/11/03 13:08:04;;;;;;;7.07;2.30;;;12.70;99.90;;;;;;5252448;28;20220;-50
2022/11/03 13:10:34;;;;;;;9.03;2.37;;;12.70;99.90;;;;;;5266041;28;20181;-52
2022/11/03 13:13:06;;;;;;;11.13;2.50;;;12.60;99.90;;;;;;5264373;28;20717;-51
2022/11/03 13:15:37;;;;;;;6.37;2.60;;;12.80;99.90;;;;;;5257656;28;20442;-52
2022/11/03 13:18:07;;;;;;;7.30;2.90;;;12.70;99.90;;;;;;5268950;28;20244;-50
2022/11/03 13:20:38;;;;;;;9.37;2.97;;;12.70;99.90;;;;;;5266010;28;20177;-53
2022/11/03 13:23:09;;;;;;;10.37;4.33;;;12.60;99.90;;;;;;5256309;28;20193;-51
2022/11/03 13:25:39;;;;;;;9.03;2.00;;;12.60;99.90;;;;;;5259708;28;20189;-49
2022/11/03 13:28:10;;;;;;;2.10;2.00;;;12.60;99.90;;;;;;5263875;28;20312;-50
2022/11/03 13:30:40;;;;;;;6.97;3.03;;;12.60;99.90;;;;;;5257721;28;20186;-51
2022/11/03 13:33:11;;;;;;;10.00;2.57;;;12.60;99.90;;;;;;5254889;28;20189;-51
2022/11/03 13:35:42;;;;;;;7.30;2.60;;;12.60;99.90;;;;;;5258648;28;20286;-51
2022/11/03 13:38:12;;;;;;;6.77;2.43;;;12.60;99.90;;;;;;5255542;28;20275;-51
2022/11/03 13:40:43;;;;;;;7.03;2.57;;;12.50;99.90;;;;;;5260972;28;20260;-49
2022/11/03 13:43:13;;;;;;;18.87;2.67;;;12.60;99.90;;;;;;5259222;28;20189;-50
2022/11/03 13:45:44;;;;;;;6.10;2.30;;;12.70;99.90;;;;;;5259237;28;20555;-49
2022/11/03 13:48:17;;;;;;;3.07;1.63;;;12.70;99.90;;;;;;5277111;28;20669;-53
2022/11/03 13:50:50;;;;;;;4.53;2.63;;;12.70;99.90;;;;;;5260380;28;20670;-50